Time;durP1;ratioP1;P1;durP2;ratioP2;P2;SDS_P1;SDS_P2;PMS_P1;PMS_P2;Temp;Humidity;BMP_temperature;BMP_pressure;BME280_temperature;BME280_humidity;BME280_pressure;Samples;Min_cycle;Max_cycle;Signal;HPM_P1;HPM_P2
2023/03/24 00:02:00;;;;;;;3.35;2.08;;;;;;;;;;5053019;28;20503;-58
2023/03/24 00:04:26;;;;;;;7.63;1.80;;;;;;;;;;5071196;28;20040;-58
2023/03/24 00:06:53;;;;;;;3.45;1.85;;;;;;;;;;5073869;28;20085;-58
2023/03/24 00:09:19;;;;;;;4.45;1.92;;;;;;;;;;5073616;28;20074;-58
2023/03/24 00:11:45;;;;;;;4.65;1.75;;;;;;;;;;5070468;28;20164;-58
2023/03/24 00:14:11;;;;;;;3.42;2.10;;;;;;;;;;5070707;28;20703;-58
2023/03/24 00:16:41;;;;;;;3.35;2.05;;;;;;;;;;5071735;28;20819;-58
2023/03/24 00:19:07;;;;;;;4.25;2.00;;;;;;;;;;5070217;28;20052;-58
2023/03/24 00:21:33;;;;;;;5.50;2.08;;;;;;;;;;5074188;28;20071;-58
2023/03/24 00:24:00;;;;;;;6.70;2.78;;;;;;;;;;5074374;28;20106;-58
2023/03/24 00:26:27;;;;;;;3.22;1.80;;;;;;;;;;5072764;28;20049;-58
2023/03/24 00:28:54;;;;;;;4.68;2.15;;;;;;;;;;5070223;28;20033;-58
2023/03/24 00:31:20;;;;;;;4.00;2.45;;;;;;;;;;5072087;28;20562;-58
2023/03/24 00:33:49;;;;;;;4.80;1.88;;;;;;;;;;5072242;28;20041;-58
2023/03/24 00:36:17;;;;;;;3.08;1.98;;;;;;;;;;5072704;28;20060;-58
2023/03/24 00:38:43;;;;;;;6.28;2.35;;;;;;;;;;5072538;28;20047;-58
2023/03/24 00:41:09;;;;;;;2.60;1.77;;;;;;;;;;5069381;28;20036;-58
2023/03/24 00:43:36;;;;;;;4.03;2.42;;;;;;;;;;5071707;28;20047;-58
2023/03/24 00:46:04;;;;;;;4.15;2.00;;;;;;;;;;5071087;28;20618;-58
2023/03/24 00:48:31;;;;;;;2.95;1.60;;;;;;;;;;5072514;28;20043;-58
2023/03/24 00:50:57;;;;;;;4.57;2.00;;;;;;;;;;5068742;28;20040;-58
2023/03/24 00:53:24;;;;;;;3.55;2.42;;;;;;;;;;5051576;28;20044;-58
2023/03/24 00:55:51;;;;;;;4.97;3.25;;;;;;;;;;5053620;28;20059;-58
2023/03/24 00:58:18;;;;;;;3.47;1.92;;;;;;;;;;5069661;28;20531;-58
2023/03/24 01:00:49;;;;;;;4.45;2.10;;;;;;;;;;5068902;28;20037;-58
2023/03/24 01:03:15;;;;;;;8.38;2.33;;;;;;;;;;5071164;28;20155;-58
2023/03/24 01:05:47;;;;;;;4.28;1.85;;;;;;;;;;5073314;28;20529;-58
2023/03/24 01:08:14;;;;;;;2.78;1.98;;;;;;;;;;5072265;28;20488;-58
2023/03/24 01:10:49;;;;;;;4.38;1.88;;;;;;;;;;5068775;28;20957;-58
2023/03/24 01:13:16;;;;;;;4.70;1.77;;;;;;;;;;5069915;28;20045;-58
2023/03/24 01:15:43;;;;;;;2.78;1.70;;;;;;;;;;5053079;28;20086;-58
2023/03/24 01:18:11;;;;;;;3.90;2.38;;;;;;;;;;5071090;28;20552;-58
2023/03/24 01:20:39;;;;;;;4.65;3.00;;;;;;;;;;5072798;28;20041;-58
2023/03/24 01:23:05;;;;;;;2.70;1.88;;;;;;;;;;5067195;28;20048;-58
2023/03/24 01:25:32;;;;;;;3.13;1.73;;;;;;;;;;5069110;28;20051;-58
2023/03/24 01:27:58;;;;;;;4.13;2.15;;;;;;;;;;5071332;28;20048;-57
2023/03/24 01:30:27;;;;;;;3.45;2.08;;;;;;;;;;5051678;28;20087;-58
2023/03/24 01:32:53;;;;;;;3.70;1.27;;;;;;;;;;5069744;28;20155;-58
2023/03/24 01:35:20;;;;;;;9.52;1.85;;;;;;;;;;5046772;28;20620;-58
2023/03/24 01:37:46;;;;;;;3.75;1.70;;;;;;;;;;5070245;28;20758;-58
2023/03/24 01:40:20;;;;;;;2.33;1.02;;;;;;;;;;5044429;28;20063;-58
2023/03/24 01:42:46;;;;;;;2.75;1.40;;;;;;;;;;5071489;28;20041;-58
2023/03/24 01:45:31;;;;;;;8.23;1.92;;;;;;;;;;5072634;28;20101;-58
2023/03/24 01:47:57;;;;;;;3.53;2.33;;;;;;;;;;5072292;28;20463;-58
2023/03/24 01:50:23;;;;;;;3.70;1.42;;;;;;;;;;5073599;28;20654;-58
2023/03/24 01:52:49;;;;;;;3.75;1.50;;;;;;;;;;5068952;28;21115;-58
2023/03/24 01:55:18;;;;;;;4.85;1.75;;;;;;;;;;5071888;28;20486;-58
2023/03/24 01:57:51;;;;;;;2.38;1.58;;;;;;;;;;5070355;28;20478;-58
2023/03/24 02:00:19;;;;;;;5.53;1.85;;;;;;;;;;5071458;28;20048;-58
2023/03/24 02:02:48;;;;;;;5.95;1.23;;;;;;;;;;5072190;28;20502;-58
2023/03/24 02:05:14;;;;;;;3.97;1.55;;;;;;;;;;5071480;28;20066;-58
2023/03/24 02:07:47;;;;;;;3.72;1.50;;;;;;;;;;5070090;28;20040;-58
2023/03/24 02:10:12;;;;;;;;;;;;;;;;;;5067859;28;20160;-58
2023/03/24 02:12:40;;;;;;;3.63;1.42;;;;;;;;;;5068206;28;20261;-58
2023/03/24 02:15:07;;;;;;;3.60;1.35;;;;;;;;;;5052116;28;20056;-58
2023/03/24 02:18:00;;;;;;;5.47;1.48;;;;;;;;;;5045492;28;20033;-58
2023/03/24 02:20:29;;;;;;;3.78;1.02;;;;;;;;;;5064528;28;20520;-58
2023/03/24 02:23:13;;;;;;;3.35;1.38;;;;;;;;;;5071942;28;20037;-58
2023/03/24 02:25:58;;;;;;;2.50;1.10;;;;;;;;;;5066612;28;20351;-58
2023/03/24 02:28:33;;;;;;;6.40;1.70;;;;;;;;;;5066491;28;20538;-58
2023/03/24 02:31:00;;;;;;;4.28;2.03;;;;;;;;;;5069811;28;20037;-58
2023/03/24 02:33:39;;;;;;;2.33;1.10;;;;;;;;;;5068514;28;20551;-58
2023/03/24 02:36:14;;;;;;;4.72;1.55;;;;;;;;;;5069767;28;20048;-58
2023/03/24 02:38:57;;;;;;;3.75;1.48;;;;;;;;;;5069639;28;20589;-58
2023/03/24 02:41:30;;;;;;;3.28;1.33;;;;;;;;;;5070371;28;20052;-58
2023/03/24 02:44:02;;;;;;;5.03;1.65;;;;;;;;;;5069268;28;20621;-58
2023/03/24 02:46:44;;;;;;;7.28;2.28;;;;;;;;;;5065277;28;20110;-58
2023/03/24 02:49:13;;;;;;;0.85;0.65;;;;;;;;;;5050326;28;20458;-58
2023/03/24 02:51:45;;;;;;;8.45;1.70;;;;;;;;;;5069587;28;20040;-58
2023/03/24 02:54:14;;;;;;;3.25;1.30;;;;;;;;;;5042549;28;20041;-58
2023/03/24 02:56:45;;;;;;;3.97;1.27;;;;;;;;;;5070996;28;20041;-58
2023/03/24 02:59:16;;;;;;;7.78;3.35;;;;;;;;;;5068052;28;20041;-58
2023/03/24 03:01:56;;;;;;;3.47;1.17;;;;;;;;;;5044680;28;20037;-58
2023/03/24 03:04:33;;;;;;;7.00;1.95;;;;;;;;;;5068917;28;20060;-58
2023/03/24 03:07:05;;;;;;;5.93;1.35;;;;;;;;;;5066718;28;20033;-58
2023/03/24 03:09:32;;;;;;;6.43;1.65;;;;;;;;;;5068357;28;20527;-58
2023/03/24 03:11:59;;;;;;;5.05;1.42;;;;;;;;;;5068131;28;20044;-58
2023/03/24 03:14:25;;;;;;;6.07;1.52;;;;;;;;;;5066163;28;20391;-58
2023/03/24 03:17:05;;;;;;;6.15;1.73;;;;;;;;;;5069633;28;20170;-58
2023/03/24 03:19:35;;;;;;;4.95;1.98;;;;;;;;;;5048086;28;20056;-58
2023/03/24 03:22:04;;;;;;;5.25;1.63;;;;;;;;;;5068551;28;20083;-58
2023/03/24 03:24:32;;;;;;;5.55;1.80;;;;;;;;;;5071538;28;20174;-58
2023/03/24 03:27:01;;;;;;;14.00;2.15;;;;;;;;;;5069546;28;20047;-58
2023/03/24 03:29:29;;;;;;;11.88;3.10;;;;;;;;;;5071715;28;20056;-58
2023/03/24 03:31:58;;;;;;;9.65;1.60;;;;;;;;;;5073375;28;20052;-58
2023/03/24 03:34:34;;;;;;;8.73;2.53;;;;;;;;;;5071242;28;20052;-58
2023/03/24 03:37:13;;;;;;;3.30;2.03;;;;;;;;;;5073457;28;20477;-58
2023/03/24 03:39:59;;;;;;;4.57;1.75;;;;;;;;;;5070713;28;20845;-58
2023/03/24 03:42:25;;;;;;;8.90;2.00;;;;;;;;;;5074221;28;20044;-58
2023/03/24 03:44:52;;;;;;;3.80;2.10;;;;;;;;;;5074517;28;20036;-58
2023/03/24 03:47:20;;;;;;;5.43;1.50;;;;;;;;;;5070650;28;20057;-58
2023/03/24 03:49:46;;;;;;;8.98;3.42;;;;;;;;;;5074439;28;20044;-58
2023/03/24 03:52:13;;;;;;;9.18;1.55;;;;;;;;;;5054823;28;20105;-58
2023/03/24 03:54:41;;;;;;;6.22;1.88;;;;;;;;;;5072791;28;20523;-58
2023/03/24 03:57:07;;;;;;;5.07;1.42;;;;;;;;;;5073561;28;20090;-58
2023/03/24 03:59:34;;;;;;;2.92;1.38;;;;;;;;;;5053990;28;20047;-58
2023/03/24 04:02:06;;;;;;;7.40;1.90;;;;;;;;;;5071293;28;20049;-58
2023/03/24 04:04:32;;;;;;;8.68;2.05;;;;;;;;;;5072396;28;20048;-58
2023/03/24 04:07:11;;;;;;;9.98;2.33;;;;;;;;;;5072814;28;20122;-58
2023/03/24 04:09:56;;;;;;;5.32;1.40;;;;;;;;;;5071671;28;20051;-58
2023/03/24 04:12:51;;;;;;;12.23;3.67;;;;;;;;;;5069453;28;20029;-58
2023/03/24 04:15:20;;;;;;;14.02;2.97;;;;;;;;;;4981071;28;20098;-58
2023/03/24 04:17:54;;;;;;;4.50;1.30;;;;;;;;;;5071830;28;20040;-58
2023/03/24 04:20:23;;;;;;;4.65;1.65;;;;;;;;;;5072353;28;20497;-58
2023/03/24 04:23:01;;;;;;;11.70;3.08;;;;;;;;;;5070960;28;20097;-58
2023/03/24 04:25:34;;;;;;;6.70;3.05;;;;;;;;;;5069471;28;20049;-58
2023/03/24 04:28:19;;;;;;;6.50;1.63;;;;;;;;;;5070819;28;20515;-58
2023/03/24 04:30:54;;;;;;;3.63;1.52;;;;;;;;;;5072075;28;20040;-58
2023/03/24 04:33:27;;;;;;;7.05;2.55;;;;;;;;;;5069754;28;20048;-58
2023/03/24 04:36:05;;;;;;;19.35;3.75;;;;;;;;;;5068129;28;20052;-58
2023/03/24 04:38:34;;;;;;;9.82;2.75;;;;;;;;;;5070665;28;20617;-58
2023/03/24 04:41:01;;;;;;;11.73;2.30;;;;;;;;;;5070444;28;20132;-58
2023/03/24 04:43:28;;;;;;;8.05;3.47;;;;;;;;;;5070625;28;20037;-58
2023/03/24 04:45:56;;;;;;;9.38;2.35;;;;;;;;;;5072371;28;20127;-58
2023/03/24 04:48:23;;;;;;;9.70;2.60;;;;;;;;;;5070537;28;20662;-58
2023/03/24 04:50:54;;;;;;;6.28;2.20;;;;;;;;;;5071728;28;20145;-58
2023/03/24 04:53:20;;;;;;;9.48;2.50;;;;;;;;;;5068193;28;20033;-58
2023/03/24 04:55:49;;;;;;;6.10;1.92;;;;;;;;;;5068292;28;20045;-58
2023/03/24 04:58:19;;;;;;;13.90;3.00;;;;;;;;;;5069219;28;20079;-58
2023/03/24 05:00:45;;;;;;;7.70;3.20;;;;;;;;;;5068955;28;20040;-58
2023/03/24 05:03:14;;;;;;;7.28;2.55;;;;;;;;;;5071107;28;20048;-58
2023/03/24 05:05:41;;;;;;;4.93;2.88;;;;;;;;;;5071963;28;20091;-58
2023/03/24 05:08:08;;;;;;;11.80;2.10;;;;;;;;;;5070725;28;20041;-58
2023/03/24 05:10:34;;;;;;;10.70;3.97;;;;;;;;;;5069834;28;20040;-58
2023/03/24 05:13:01;;;;;;;6.28;1.88;;;;;;;;;;5067668;28;20048;-58
2023/03/24 05:15:27;;;;;;;12.85;2.75;;;;;;;;;;5067416;28;20067;-58
2023/03/24 05:17:53;;;;;;;5.70;2.30;;;;;;;;;;5071259;28;20053;-57
2023/03/24 05:20:19;;;;;;;8.23;2.72;;;;;;;;;;5053860;28;20548;-58
2023/03/24 05:22:45;;;;;;;3.80;1.70;;;;;;;;;;5072509;28;20113;-58
2023/03/24 05:25:11;;;;;;;11.77;2.03;;;;;;;;;;5069475;28;20576;-58
2023/03/24 05:27:37;;;;;;;10.30;2.50;;;;;;;;;;5072015;28;20048;-58
2023/03/24 05:30:05;;;;;;;7.03;3.05;;;;;;;;;;5070756;28;20043;-58
2023/03/24 05:32:31;;;;;;;7.90;2.33;;;;;;;;;;5070344;28;20047;-57
2023/03/24 05:34:57;;;;;;;7.15;2.67;;;;;;;;;;5071033;28;20102;-58
2023/03/24 05:37:23;;;;;;;7.97;2.35;;;;;;;;;;5072827;28;20044;-58
2023/03/24 05:39:49;;;;;;;6.43;2.53;;;;;;;;;;5066467;28;20140;-58
2023/03/24 05:42:16;;;;;;;7.63;1.90;;;;;;;;;;5070390;28;20917;-57
2023/03/24 05:44:42;;;;;;;17.58;2.47;;;;;;;;;;5045179;28;20195;-58
2023/03/24 05:47:08;;;;;;;10.32;2.38;;;;;;;;;;5064937;28;20489;-58
2023/03/24 05:49:35;;;;;;;13.82;4.43;;;;;;;;;;5069583;28;20047;-58
2023/03/24 05:52:01;;;;;;;11.13;2.10;;;;;;;;;;5072034;28;20037;-57
2023/03/24 05:54:28;;;;;;;6.50;2.30;;;;;;;;;;5068060;28;20040;-58
2023/03/24 05:56:54;;;;;;;11.23;2.88;;;;;;;;;;5063211;28;20087;-58
2023/03/24 05:59:20;;;;;;;6.38;2.33;;;;;;;;;;5070540;28;20041;-59
2023/03/24 06:01:47;;;;;;;12.23;3.35;;;;;;;;;;5068960;28;20163;-58
2023/03/24 06:04:13;;;;;;;13.57;2.92;;;;;;;;;;5064454;28;20079;-58
2023/03/24 06:06:39;;;;;;;15.05;3.70;;;;;;;;;;5068251;28;20118;-57
2023/03/24 06:09:06;;;;;;;11.10;2.08;;;;;;;;;;5068932;28;20051;-58
2023/03/24 06:11:32;;;;;;;8.40;2.65;;;;;;;;;;5066587;28;20041;-57
2023/03/24 06:13:59;;;;;;;5.82;2.13;;;;;;;;;;5069203;28;20044;-58
2023/03/24 06:16:26;;;;;;;10.43;2.85;;;;;;;;;;5070800;28;20063;-57
2023/03/24 06:18:52;;;;;;;10.80;3.10;;;;;;;;;;5068603;28;20040;-58
2023/03/24 06:21:18;;;;;;;13.32;3.05;;;;;;;;;;5071188;28;20715;-57
2023/03/24 06:23:45;;;;;;;12.45;2.75;;;;;;;;;;5064998;28;20047;-57
2023/03/24 06:26:12;;;;;;;8.77;2.72;;;;;;;;;;5062740;28;20122;-57
2023/03/24 06:28:40;;;;;;;9.85;2.88;;;;;;;;;;5069350;28;20091;-59
2023/03/24 06:31:13;;;;;;;4.90;2.03;;;;;;;;;;5044014;28;20159;-57
2023/03/24 06:33:39;;;;;;;7.40;1.80;;;;;;;;;;5053703;28;20056;-57
2023/03/24 06:36:06;;;;;;;16.20;3.45;;;;;;;;;;5070432;28;20077;-57
2023/03/24 06:38:32;;;;;;;5.53;1.55;;;;;;;;;;5067914;28;20036;-57
2023/03/24 06:41:01;;;;;;;10.32;2.90;;;;;;;;;;5071155;28;20520;-57
2023/03/24 06:43:27;;;;;;;10.55;3.83;;;;;;;;;;5070585;28;20087;-57
2023/03/24 06:45:53;;;;;;;8.55;2.78;;;;;;;;;;5069905;28;20119;-57
2023/03/24 06:48:19;;;;;;;7.63;2.47;;;;;;;;;;5070900;28;20138;-57
2023/03/24 06:50:45;;;;;;;14.15;3.03;;;;;;;;;;5070775;28;20109;-57
2023/03/24 06:53:11;;;;;;;19.80;4.05;;;;;;;;;;5066683;28;20531;-57
2023/03/24 06:55:38;;;;;;;8.18;2.95;;;;;;;;;;5069395;28;20123;-57
2023/03/24 06:58:04;;;;;;;11.73;2.83;;;;;;;;;;5072740;28;20047;-57
2023/03/24 07:00:30;;;;;;;13.60;3.88;;;;;;;;;;5069183;28;20571;-58
2023/03/24 07:02:56;;;;;;;12.15;2.88;;;;;;;;;;5073075;28;20056;-57
2023/03/24 07:05:22;;;;;;;10.85;3.05;;;;;;;;;;5072142;28;20874;-58
2023/03/24 07:07:49;;;;;;;9.10;3.80;;;;;;;;;;5073303;28;20033;-57
2023/03/24 07:10:15;;;;;;;9.07;3.30;;;;;;;;;;5071272;28;20080;-57
2023/03/24 07:12:41;;;;;;;10.48;3.10;;;;;;;;;;5073140;28;20056;-57
2023/03/24 07:15:08;;;;;;;13.10;4.60;;;;;;;;;;5069831;28;20040;-57
2023/03/24 07:17:35;;;;;;;10.60;3.33;;;;;;;;;;5057039;28;20139;-57
2023/03/24 07:20:01;;;;;;;11.77;3.33;;;;;;;;;;5071844;28;20590;-58
2023/03/24 07:22:27;;;;;;;9.48;2.65;;;;;;;;;;5050065;28;20531;-58
2023/03/24 07:24:55;;;;;;;13.00;4.45;;;;;;;;;;5071276;28;20048;-58
2023/03/24 07:27:21;;;;;;;19.48;5.00;;;;;;;;;;5073998;28;20055;-57
2023/03/24 07:29:47;;;;;;;15.93;5.15;;;;;;;;;;5072583;28;20041;-58
2023/03/24 07:32:13;;;;;;;8.05;2.80;;;;;;;;;;5073595;28;20044;-58
2023/03/24 07:34:40;;;;;;;7.50;2.35;;;;;;;;;;5073246;28;20083;-57
2023/03/24 07:37:06;;;;;;;7.15;2.83;;;;;;;;;;5072982;28;20068;-58
2023/03/24 07:39:32;;;;;;;5.45;1.52;;;;;;;;;;5047768;28;20154;-58
2023/03/24 07:41:58;;;;;;;14.55;3.65;;;;;;;;;;5073512;28;20883;-58
2023/03/24 07:44:25;;;;;;;9.65;3.17;;;;;;;;;;5050894;28;20044;-58
2023/03/24 07:46:51;;;;;;;13.45;2.03;;;;;;;;;;5066827;28;20110;-57
2023/03/24 07:49:17;;;;;;;12.70;3.92;;;;;;;;;;5067969;28;20041;-58
2023/03/24 07:51:43;;;;;;;11.95;3.15;;;;;;;;;;5067255;28;21345;-58
2023/03/24 07:54:10;;;;;;;8.07;2.72;;;;;;;;;;5072797;28;20545;-58
2023/03/24 07:56:36;;;;;;;13.02;4.13;;;;;;;;;;5072459;28;20447;-58
2023/03/24 07:59:02;;;;;;;5.13;2.47;;;;;;;;;;5076228;28;20147;-58
2023/03/24 08:01:28;;;;;;;18.75;6.03;;;;;;;;;;5072248;28;20045;-58
2023/03/24 08:03:54;;;;;;;9.05;2.30;;;;;;;;;;5072633;28;21331;-58
2023/03/24 08:06:21;;;;;;;19.30;4.90;;;;;;;;;;5048905;28;20049;-58
2023/03/24 08:08:47;;;;;;;16.17;2.90;;;;;;;;;;5073467;28;20041;-58
2023/03/24 08:11:13;;;;;;;15.70;2.85;;;;;;;;;;5075007;28;20036;-58
2023/03/24 08:13:39;;;;;;;7.78;3.13;;;;;;;;;;5073986;28;20040;-58
2023/03/24 08:16:05;;;;;;;12.40;3.00;;;;;;;;;;5073185;28;20040;-58
2023/03/24 08:18:33;;;;;;;15.48;3.45;;;;;;;;;;5074412;28;20055;-58
2023/03/24 08:21:01;;;;;;;15.50;3.33;;;;;;;;;;5073978;28;20098;-57
2023/03/24 08:23:27;;;;;;;21.42;3.35;;;;;;;;;;5069853;28;20175;-57
2023/03/24 08:25:53;;;;;;;13.93;3.75;;;;;;;;;;5074092;28;20044;-57
2023/03/24 08:28:19;;;;;;;9.60;1.92;;;;;;;;;;5066248;28;20045;-59
2023/03/24 08:30:45;;;;;;;10.38;3.60;;;;;;;;;;5070466;28;20151;-58
2023/03/24 08:33:13;;;;;;;15.18;3.53;;;;;;;;;;5070746;28;21102;-58
2023/03/24 08:35:39;;;;;;;12.05;2.78;;;;;;;;;;5069434;28;20264;-58
2023/03/24 08:38:06;;;;;;;8.30;2.85;;;;;;;;;;5072184;28;20518;-58
2023/03/24 08:40:33;;;;;;;12.00;2.83;;;;;;;;;;5074956;28;20819;-58
2023/03/24 08:43:01;;;;;;;13.50;3.90;;;;;;;;;;5072383;28;20071;-58
2023/03/24 08:45:29;;;;;;;11.45;2.78;;;;;;;;;;5074665;28;20048;-58
2023/03/24 08:47:57;;;;;;;12.70;3.53;;;;;;;;;;5075341;28;20052;-58
2023/03/24 08:50:26;;;;;;;8.75;3.25;;;;;;;;;;5073428;28;20157;-58
2023/03/24 08:52:53;;;;;;;10.65;3.53;;;;;;;;;;5073189;28;20541;-57
2023/03/24 08:55:19;;;;;;;10.15;4.18;;;;;;;;;;5073660;28;20106;-58
2023/03/24 08:57:45;;;;;;;9.07;3.00;;;;;;;;;;5073613;28;20040;-58
2023/03/24 09:00:15;;;;;;;15.57;3.97;;;;;;;;;;5072642;28;20547;-58
2023/03/24 09:02:45;;;;;;;10.65;2.25;;;;;;;;;;5072819;28;20063;-58
2023/03/24 09:05:12;;;;;;;12.05;2.33;;;;;;;;;;5073941;28;20962;-58
2023/03/24 09:07:38;;;;;;;11.77;2.78;;;;;;;;;;5073278;28;20090;-58
2023/03/24 09:10:06;;;;;;;9.02;2.50;;;;;;;;;;5072482;28;20048;-58
2023/03/24 09:12:32;;;;;;;12.65;3.22;;;;;;;;;;5073932;28;20041;-58
2023/03/24 09:14:58;;;;;;;8.15;4.03;;;;;;;;;;5073511;28;20040;-58
2023/03/24 09:17:24;;;;;;;13.88;2.38;;;;;;;;;;5072633;28;20367;-58
2023/03/24 09:19:50;;;;;;;10.57;2.50;;;;;;;;;;5069990;28;20074;-57
2023/03/24 09:22:16;;;;;;;10.52;2.83;;;;;;;;;;5073957;28;20139;-57
2023/03/24 09:24:43;;;;;;;10.57;3.72;;;;;;;;;;5047982;28;20048;-57
2023/03/24 09:27:09;;;;;;;14.00;3.92;;;;;;;;;;5074155;28;20142;-57
2023/03/24 09:29:36;;;;;;;5.90;2.97;;;;;;;;;;5072472;28;20056;-58
2023/03/24 09:32:02;;;;;;;13.88;2.80;;;;;;;;;;5069280;28;20051;-58
2023/03/24 09:34:29;;;;;;;7.35;2.55;;;;;;;;;;5072664;28;20041;-57
2023/03/24 09:36:55;;;;;;;7.45;2.78;;;;;;;;;;5070552;28;20526;-58
2023/03/24 09:39:21;;;;;;;6.57;3.70;;;;;;;;;;5072682;28;20036;-58
2023/03/24 09:41:49;;;;;;;4.68;1.80;;;;;;;;;;5073298;28;20052;-58
2023/03/24 09:44:29;;;;;;;13.50;3.30;;;;;;;;;;5073458;28;20068;-57
2023/03/24 09:47:01;;;;;;;9.90;2.35;;;;;;;;;;5072757;28;21363;-58
2023/03/24 09:49:28;;;;;;;12.75;4.25;;;;;;;;;;5072833;28;20043;-57
2023/03/24 09:52:00;;;;;;;10.32;3.70;;;;;;;;;;5072719;28;20050;-57
2023/03/24 09:54:52;;;;;;;13.65;3.10;;;;;;;;;;5071846;28;20032;-57
2023/03/24 09:57:26;;;;;;;7.90;2.47;;;;;;;;;;5048888;28;20051;-57
2023/03/24 09:59:52;;;;;;;12.15;2.60;;;;;;;;;;5072392;28;20566;-58
2023/03/24 10:02:20;;;;;;;12.77;2.75;;;;;;;;;;5073697;28;20163;-58
2023/03/24 10:04:46;;;;;;;9.05;2.95;;;;;;;;;;5071875;28;20045;-57
2023/03/24 10:07:18;;;;;;;12.98;3.15;;;;;;;;;;5071759;28;20085;-58
2023/03/24 10:09:47;;;;;;;16.60;3.05;;;;;;;;;;5068426;28;20116;-57
2023/03/24 10:12:26;;;;;;;9.20;2.70;;;;;;;;;;5067399;28;20052;-58
2023/03/24 10:15:10;;;;;;;13.70;3.47;;;;;;;;;;5071677;28;20132;-58
2023/03/24 10:17:36;;;;;;;9.27;2.53;;;;;;;;;;5071839;28;20439;-58
2023/03/24 10:20:21;;;;;;;8.60;2.65;;;;;;;;;;5070988;28;20036;-57
2023/03/24 10:22:56;;;;;;;9.82;2.42;;;;;;;;;;5070457;28;20040;-58
2023/03/24 10:25:41;;;;;;;6.10;1.95;;;;;;;;;;5069340;28;20048;-58
2023/03/24 10:28:20;;;;;;;13.63;3.03;;;;;;;;;;5066752;28;20941;-58
2023/03/24 10:30:47;;;;;;;10.02;2.65;;;;;;;;;;5067430;28;20045;-58
2023/03/24 10:33:13;;;;;;;8.68;2.67;;;;;;;;;;5073974;28;20052;-58
2023/03/24 10:35:51;;;;;;;9.35;3.05;;;;;;;;;;5074295;28;20040;-58
2023/03/24 10:38:18;;;;;;;8.52;3.03;;;;;;;;;;5074012;28;20124;-58
2023/03/24 10:40:45;;;;;;;11.95;5.22;;;;;;;;;;5074524;28;20147;-58
2023/03/24 10:43:12;;;;;;;11.10;3.55;;;;;;;;;;5073737;28;20064;-58
2023/03/24 10:45:40;;;;;;;13.48;3.75;;;;;;;;;;5074640;28;20041;-58
2023/03/24 10:48:08;;;;;;;11.35;2.58;;;;;;;;;;5074243;28;20062;-58
2023/03/24 10:50:34;;;;;;;19.13;4.75;;;;;;;;;;5057804;28;20541;-58
2023/03/24 10:53:07;;;;;;;17.92;3.75;;;;;;;;;;5074645;28;20860;-57
2023/03/24 10:55:38;;;;;;;14.45;3.67;;;;;;;;;;5074043;28;20110;-58
2023/03/24 10:58:12;;;;;;;15.00;2.42;;;;;;;;;;5075436;28;20878;-58
2023/03/24 11:00:39;;;;;;;10.82;2.85;;;;;;;;;;5074269;28;20063;-57
2023/03/24 11:03:07;;;;;;;7.68;2.33;;;;;;;;;;5072852;28;20455;-57
2023/03/24 11:05:34;;;;;;;11.07;3.45;;;;;;;;;;5075032;28;20044;-58
2023/03/24 11:08:16;;;;;;;9.90;2.40;;;;;;;;;;5066169;28;20045;-58
2023/03/24 11:10:42;;;;;;;12.32;3.33;;;;;;;;;;5071839;28;20669;-58
2023/03/24 11:13:18;;;;;;;9.27;2.50;;;;;;;;;;5063828;28;20090;-58
2023/03/24 11:16:00;;;;;;;5.35;1.75;;;;;;;;;;5073627;28;20044;-57
2023/03/24 11:18:26;;;;;;;6.75;1.50;;;;;;;;;;5073655;28;20051;-58
2023/03/24 11:20:56;;;;;;;14.15;2.92;;;;;;;;;;5067111;28;20565;-58
2023/03/24 11:23:39;;;;;;;9.57;1.58;;;;;;;;;;5070617;28;20049;-58
2023/03/24 11:26:08;;;;;;;5.40;2.05;;;;;;;;;;5055880;28;20040;-58
2023/03/24 11:28:39;;;;;;;6.13;2.60;;;;;;;;;;5074916;28;20048;-58
2023/03/24 11:31:07;;;;;;;5.97;1.90;;;;;;;;;;5075629;28;20194;-58
2023/03/24 11:33:34;;;;;;;10.85;3.03;;;;;;;;;;5075475;28;20365;-58
2023/03/24 11:36:00;;;;;;;7.97;2.95;;;;;;;;;;5070498;28;20036;-58
2023/03/24 11:38:31;;;;;;;4.63;1.60;;;;;;;;;;5073454;28;20036;-57
2023/03/24 11:41:03;;;;;;;8.73;2.42;;;;;;;;;;5074367;28;20045;-57
2023/03/24 11:43:30;;;;;;;8.65;2.83;;;;;;;;;;5072756;28;20541;-57
2023/03/24 11:45:59;;;;;;;10.90;3.47;;;;;;;;;;5071848;28;20045;-57
2023/03/24 11:48:29;;;;;;;3.65;2.20;;;;;;;;;;5056527;28;20148;-57
2023/03/24 11:50:57;;;;;;;14.00;3.55;;;;;;;;;;5072550;28;20505;-57
2023/03/24 11:53:25;;;;;;;13.00;2.35;;;;;;;;;;5073459;28;20044;-57
2023/03/24 11:55:56;;;;;;;7.80;1.88;;;;;;;;;;5073170;28;20549;-57
2023/03/24 11:58:26;;;;;;;10.30;3.50;;;;;;;;;;5069738;28;20041;-57
2023/03/24 12:01:12;;;;;;;7.47;1.85;;;;;;;;;;5073332;28;20045;-57
2023/03/24 12:03:41;;;;;;;7.13;2.75;;;;;;;;;;5074740;28;20068;-57
2023/03/24 12:06:20;;;;;;;8.15;1.83;;;;;;;;;;5053328;28;20136;-57
2023/03/24 12:09:08;;;;;;;10.20;2.78;;;;;;;;;;5073933;28;20044;-57
2023/03/24 12:11:43;;;;;;;10.38;2.20;;;;;;;;;;5074425;28;20049;-57
2023/03/24 12:14:09;;;;;;;6.38;2.05;;;;;;;;;;5074165;28;20036;-57
2023/03/24 12:16:45;;;;;;;9.27;2.85;;;;;;;;;;5048125;28;20588;-57
2023/03/24 12:19:26;;;;;;;13.48;1.98;;;;;;;;;;5074031;28;20099;-58
2023/03/24 12:21:52;;;;;;;9.10;2.97;;;;;;;;;;5072136;28;20040;-57
2023/03/24 12:24:37;;;;;;;12.93;2.78;;;;;;;;;;5055577;28;20050;-57
2023/03/24 12:27:03;;;;;;;17.05;2.67;;;;;;;;;;5072819;28;20037;-57
2023/03/24 12:29:46;;;;;;;8.25;3.00;;;;;;;;;;5048865;28;20150;-57
2023/03/24 12:32:30;;;;;;;7.78;1.85;;;;;;;;;;5070283;28;20162;-57
2023/03/24 12:34:56;;;;;;;4.90;1.98;;;;;;;;;;5053637;28;20045;-57
2023/03/24 12:37:28;;;;;;;7.93;2.47;;;;;;;;;;5074073;28;20044;-57
2023/03/24 12:39:54;;;;;;;4.50;1.80;;;;;;;;;;5071136;28;20048;-57
2023/03/24 12:42:23;;;;;;;4.00;1.02;;;;;;;;;;5071718;28;20045;-57
2023/03/24 12:44:49;;;;;;;4.93;1.55;;;;;;;;;;5069181;28;20044;-57
2023/03/24 12:47:24;;;;;;;4.68;1.25;;;;;;;;;;5073468;28;20053;-57
2023/03/24 12:49:59;;;;;;;6.05;1.85;;;;;;;;;;5072377;28;21322;-57
2023/03/24 12:52:41;;;;;;;5.80;1.70;;;;;;;;;;5072261;28;20048;-57
2023/03/24 12:55:11;;;;;;;8.27;2.00;;;;;;;;;;5072345;28;20553;-57
2023/03/24 12:57:48;;;;;;;9.55;2.25;;;;;;;;;;5074326;28;20060;-57
2023/03/24 13:00:21;;;;;;;7.38;1.60;;;;;;;;;;5074058;28;20518;-57
2023/03/24 13:02:51;;;;;;;6.18;1.90;;;;;;;;;;5074636;28;20056;-57
2023/03/24 13:05:20;;;;;;;7.50;1.95;;;;;;;;;;5072091;28;20151;-57
2023/03/24 13:07:52;;;;;;;8.95;3.22;;;;;;;;;;5073738;28;20119;-57
2023/03/24 13:10:19;;;;;;;7.25;1.60;;;;;;;;;;5073846;28;20151;-57
2023/03/24 13:13:00;;;;;;;8.18;3.47;;;;;;;;;;5073598;28;20099;-58
2023/03/24 13:15:26;;;;;;;5.97;1.80;;;;;;;;;;5067283;28;20398;-57
2023/03/24 13:18:03;;;;;;;6.45;1.98;;;;;;;;;;5025469;28;20421;-58
2023/03/24 13:20:32;;;;;;;5.07;1.40;;;;;;;;;;5027792;28;20089;-58
2023/03/24 13:23:02;;;;;;;4.13;1.30;;;;;;;;;;5028457;28;21490;-58
2023/03/24 13:25:28;;;;;;;2.53;1.20;;;;;;;;;;5027605;28;20551;-58
2023/03/24 13:27:57;;;;;;;5.85;1.95;;;;;;;;;;5027633;28;20534;-58
2023/03/24 13:30:30;;;;;;;8.27;1.98;;;;;;;;;;5024222;28;20120;-58
2023/03/24 13:32:58;;;;;;;6.03;2.10;;;;;;;;;;5024592;28;20042;-58
2023/03/24 13:35:42;;;;;;;8.50;1.88;;;;;;;;;;5025037;28;20046;-58
2023/03/24 13:38:21;;;;;;;5.20;2.78;;;;;;;;;;5027312;28;20042;-58
2023/03/24 13:40:51;;;;;;;9.02;2.88;;;;;;;;;;5019563;28;20588;-58
2023/03/24 13:43:19;;;;;;;9.23;2.22;;;;;;;;;;5025210;28;20038;-58
2023/03/24 13:45:52;;;;;;;9.38;2.30;;;;;;;;;;5026338;28;20101;-58
2023/03/24 13:48:25;;;;;;;7.35;2.13;;;;;;;;;;5043350;28;20100;-58
2023/03/24 13:50:55;;;;;;;9.45;3.65;;;;;;;;;;5027477;28;20172;-58
2023/03/24 13:53:28;;;;;;;8.38;1.48;;;;;;;;;;5024847;28;20554;-57
2023/03/24 13:55:54;;;;;;;6.55;1.98;;;;;;;;;;5020634;28;20131;-57
2023/03/24 13:58:27;;;;;;;5.43;1.95;;;;;;;;;;5027375;28;20331;-57
2023/03/24 14:01:15;;;;;;;6.53;3.13;;;;;;;;;;5024818;28;20157;-57
2023/03/24 14:03:43;;;;;;;7.28;1.98;;;;;;;;;;5026494;28;20045;-58
2023/03/24 14:06:09;;;;;;;6.55;1.98;;;;;;;;;;5025886;28;21465;-57
2023/03/24 14:08:42;;;;;;;6.47;2.85;;;;;;;;;;5026493;28;20037;-58
2023/03/24 14:11:34;;;;;;;7.22;1.40;;;;;;;;;;5027239;28;20068;-58
2023/03/24 14:14:07;;;;;;;2.17;1.60;;;;;;;;;;5023312;28;20050;-58
2023/03/24 14:16:42;;;;;;;6.20;4.07;;;;;;;;;;5026489;28;20054;-58
2023/03/24 14:19:17;;;;;;;3.45;1.20;;;;;;;;;;5027629;28;20037;-58
2023/03/24 14:21:43;;;;;;;6.80;1.88;;;;;;;;;;5026622;28;20057;-58
2023/03/24 14:24:21;;;;;;;5.15;1.30;;;;;;;;;;5039435;28;20041;-58
2023/03/24 14:26:48;;;;;;;10.07;2.17;;;;;;;;;;5027355;28;20050;-58
2023/03/24 14:29:33;;;;;;;5.20;1.52;;;;;;;;;;5014308;28;20543;-57
2023/03/24 14:32:02;;;;;;;7.15;1.75;;;;;;;;;;5012455;28;20046;-57
2023/03/24 14:34:28;;;;;;;3.33;1.13;;;;;;;;;;5012801;28;20050;-57
2023/03/24 14:36:59;;;;;;;5.43;0.90;;;;;;;;;;5013112;28;20042;-57
2023/03/24 14:39:32;;;;;;;3.97;0.95;;;;;;;;;;5013222;28;20058;-57
2023/03/24 14:41:58;;;;;;;6.65;1.83;;;;;;;;;;5013551;28;20030;-57
2023/03/24 14:44:42;;;;;;;4.20;1.17;;;;;;;;;;5013175;28;20277;-57
2023/03/24 14:47:09;;;;;;;5.22;1.83;;;;;;;;;;5013901;28;20042;-57
2023/03/24 14:49:35;;;;;;;6.03;1.75;;;;;;;;;;5013916;28;20096;-57
2023/03/24 14:52:13;;;;;;;4.38;1.55;;;;;;;;;;5014719;28;20038;-57
2023/03/24 14:54:44;;;;;;;5.85;1.65;;;;;;;;;;5011984;28;20128;-57